Time;durP1;ratioP1;P1;durP2;ratioP2;P2;SDS_P1;SDS_P2;PMS_P1;PMS_P2;Temp;Humidity;BMP_temperature;BMP_pressure;BME280_temperature;BME280_humidity;BME280_pressure;Samples;Min_cycle;Max_cycle;Signal;HPM_P1;HPM_P2
2022/03/01 00:01:35;;;;;;;13.65;9.27;;;3.20;59.10;;;;;;4910622;29;20440;-91
2022/03/01 00:04:01;;;;;;;13.20;9.85;;;3.20;59.20;;;;;;4910704;29;20206;-91
2022/03/01 00:06:28;;;;;;;16.98;9.07;;;3.20;59.20;;;;;;4932850;29;20213;-92
2022/03/01 00:08:55;;;;;;;13.50;9.65;;;3.20;59.40;;;;;;4935738;29;20588;-91
2022/03/01 00:11:22;;;;;;;14.68;10.18;;;3.20;59.30;;;;;;4920597;29;20230;-91
2022/03/01 00:13:49;;;;;;;13.60;9.98;;;3.20;59.40;;;;;;4912898;29;20284;-91
2022/03/01 01:00:18;;;;;;;20.75;11.90;;;2.60;63.50;;;;;;4933228;29;20199;-93
2022/03/01 01:02:45;;;;;;;14.88;10.55;;;2.60;64.00;;;;;;4941203;29;20194;-92
2022/03/01 01:05:51;;;;;;;16.05;11.55;;;2.60;64.00;;;;;;4941283;29;20180;-92
2022/03/01 01:08:18;;;;;;;17.48;10.52;;;2.60;63.80;;;;;;4921838;29;20195;-91
2022/03/01 01:11:06;;;;;;;13.75;9.32;;;2.50;63.90;;;;;;4918385;29;20762;-93
2022/03/01 01:13:34;;;;;;;14.10;10.55;;;2.40;64.40;;;;;;4920929;29;20227;-93
2022/03/01 01:16:03;;;;;;;16.23;10.50;;;2.50;64.50;;;;;;4918116;29;20211;-92
2022/03/01 01:18:47;;;;;;;16.55;11.27;;;2.40;64.50;;;;;;4901929;29;20218;-92
2022/03/01 01:21:14;;;;;;;16.00;10.93;;;2.40;64.40;;;;;;4888083;29;20292;-93
2022/03/01 01:38:03;;;;;;;15.50;11.20;;;2.30;65.10;;;;;;4791352;29;20230;-93
2022/03/01 01:40:48;;;;;;;17.08;10.73;;;2.30;65.30;;;;;;4888135;29;20308;-93
2022/03/01 01:49:12;;;;;;;14.95;10.20;;;2.20;66.60;;;;;;4855011;29;20230;-93
2022/03/01 01:51:39;;;;;;;14.75;10.07;;;2.10;67.10;;;;;;4920712;29;20219;-93
2022/03/01 01:54:19;;;;;;;16.70;11.30;;;2.20;67.10;;;;;;4925135;29;20227;-92
2022/03/01 02:08:33;;;;;;;19.10;11.88;;;1.90;68.50;;;;;;5118263;23;20218;-93
2022/03/01 02:21:47;;;;;;;15.93;11.02;;;1.80;70.00;;;;;;4908437;29;20230;-92
2022/03/01 02:24:23;;;;;;;16.25;11.63;;;1.70;70.10;;;;;;4919004;29;20215;-92
2022/03/01 02:26:52;;;;;;;14.93;10.05;;;1.70;70.90;;;;;;4922765;29;20222;-94
2022/03/01 02:29:50;;;;;;;19.17;11.57;;;1.60;71.40;;;;;;4915442;29;20204;-93
2022/03/01 02:35:39;;;;;;;14.55;10.38;;;1.40;71.20;;;;;;4922382;29;20369;-93
2022/03/01 02:38:31;;;;;;;18.42;12.05;;;1.50;71.70;;;;;;4911596;29;20677;-95
2022/03/01 02:41:33;;;;;;;15.80;12.02;;;1.40;71.60;;;;;;4904810;29;20291;-94
2022/03/01 02:44:17;;;;;;;17.02;10.18;;;1.40;72.40;;;;;;4865880;29;20212;-93
2022/03/01 02:49:41;;;;;;;16.88;12.32;;;1.30;72.70;;;;;;4980832;23;20226;-92
2022/03/01 02:52:46;;;;;;;15.70;12.32;;;1.30;73.00;;;;;;4942972;29;20325;-91
2022/03/01 02:55:14;;;;;;;12.80;9.70;;;1.30;73.00;;;;;;4942773;29;20192;-91
2022/03/01 02:58:22;;;;;;;15.50;11.45;;;1.40;72.60;;;;;;4941345;29;20290;-92
2022/03/01 03:01:12;;;;;;;18.35;11.65;;;1.40;72.60;;;;;;4924341;29;20199;-92
2022/03/01 03:04:04;;;;;;;17.98;11.38;;;1.40;73.70;;;;;;4935756;29;20233;-93
2022/03/01 03:06:53;;;;;;;17.83;10.85;;;1.20;73.50;;;;;;4922861;29;20602;-92
2022/03/01 03:12:01;;;;;;;19.20;11.95;;;1.10;74.10;;;;;;4912804;29;20218;-92
2022/03/01 03:19:45;;;;;;;15.40;9.90;;;1.00;74.60;;;;;;4899944;29;20690;-94
2022/03/01 03:22:12;;;;;;;15.77;10.38;;;0.90;74.60;;;;;;4906440;29;20223;-93
2022/03/01 03:24:52;;;;;;;20.02;12.32;;;1.00;75.00;;;;;;4892467;29;20223;-93
2022/03/01 03:27:25;;;;;;;14.25;9.80;;;0.90;75.20;;;;;;4900692;29;20247;-93
2022/03/01 03:30:04;;;;;;;14.63;10.98;;;0.90;75.10;;;;;;4904128;29;20216;-92
2022/03/01 03:32:37;;;;;;;17.17;11.25;;;0.80;74.90;;;;;;4896737;29;20235;-92
2022/03/01 03:35:14;;;;;;;13.07;10.25;;;0.70;74.90;;;;;;4903570;29;20260;-92
2022/03/01 03:37:50;;;;;;;19.20;10.52;;;0.80;75.20;;;;;;4907659;29;20271;-93
2022/03/01 03:40:25;;;;;;;15.93;10.50;;;0.80;75.00;;;;;;4922028;29;20196;-93
2022/03/01 03:43:13;;;;;;;14.85;10.80;;;0.80;75.10;;;;;;4922219;29;20220;-94
2022/03/01 03:45:43;;;;;;;19.20;10.95;;;0.70;75.10;;;;;;4906551;29;20227;-93
2022/03/01 03:48:46;;;;;;;14.65;11.38;;;0.70;75.10;;;;;;4904428;29;20206;-93
2022/03/01 03:51:55;;;;;;;16.85;10.43;;;0.80;75.50;;;;;;4910259;29;20214;-94
2022/03/01 04:12:55;;;;;;;15.18;10.60;;;0.70;75.50;;;;;;4920507;29;20255;-94
2022/03/01 04:15:32;;;;;;;14.68;10.38;;;0.70;75.00;;;;;;4925106;29;20198;-93
2022/03/01 04:17:59;;;;;;;14.30;11.60;;;0.80;74.90;;;;;;4919951;29;20205;-94
2022/03/01 04:20:52;;;;;;;13.95;10.27;;;0.70;74.40;;;;;;4901938;29;20674;-94
2022/03/01 04:23:38;;;;;;;17.85;10.32;;;0.60;74.60;;;;;;4901447;29;20222;-94
2022/03/01 04:26:09;;;;;;;13.70;10.45;;;0.50;75.10;;;;;;4902174;29;20346;-94
2022/03/01 04:29:02;;;;;;;19.73;11.48;;;0.50;75.70;;;;;;4917574;29;20209;-93
2022/03/01 04:37:37;;;;;;;18.60;12.95;;;0.50;77.30;;;;;;4907249;29;20238;-93
2022/03/01 04:40:20;;;;;;;15.68;10.43;;;0.40;77.30;;;;;;4918610;29;20191;-90
2022/03/01 04:42:58;;;;;;;17.75;11.93;;;0.50;77.80;;;;;;4934049;29;20217;-93
2022/03/01 04:45:48;;;;;;;17.40;11.15;;;0.60;77.90;;;;;;4939458;29;20226;-92
2022/03/01 05:46:35;;;;;;;17.67;13.48;;;0.00;80.90;;;;;;4918625;29;20219;-92
2022/03/01 05:49:36;;;;;;;19.95;13.02;;;0.10;81.40;;;;;;4924164;29;20220;-93
2022/03/01 05:52:05;;;;;;;17.95;12.93;;;0.00;81.30;;;;;;4922125;29;20214;-93
2022/03/01 05:54:49;;;;;;;22.25;13.95;;;0.00;81.70;;;;;;4924041;29;20188;-93
2022/03/01 06:00:48;;;;;;;18.60;13.25;;;0.10;82.10;;;;;;4880843;29;20223;-91
2022/03/01 06:03:33;;;;;;;19.52;12.05;;;0.10;81.70;;;;;;4912514;29;20203;-93
2022/03/01 06:06:00;;;;;;;17.95;10.90;;;0.10;81.80;;;;;;4905111;29;20235;-92
2022/03/01 06:08:28;;;;;;;17.42;11.00;;;0.10;81.40;;;;;;4905643;29;20332;-93
2022/03/01 06:10:58;;;;;;;16.25;11.70;;;0.20;81.10;;;;;;4908754;29;20222;-93
2022/03/01 06:13:25;;;;;;;28.38;13.05;;;0.20;80.70;;;;;;4909093;29;20210;-92
2022/03/01 06:19:01;;;;;;;19.17;12.30;;;0.20;81.00;;;;;;5275373;23;20226;-94
2022/03/01 06:21:54;;;;;;;17.60;11.73;;;0.10;80.90;;;;;;4940582;29;20261;-96
2022/03/01 06:48:27;;;;;;;16.83;11.65;;;0.20;80.20;;;;;;4937229;29;20217;-95
2022/03/01 06:51:09;;;;;;;24.80;13.80;;;0.30;80.30;;;;;;4950630;29;20210;-93
2022/03/01 06:53:40;;;;;;;17.83;12.88;;;0.40;80.40;;;;;;4940796;29;20221;-93
2022/03/01 06:56:09;;;;;;;19.63;13.15;;;0.40;79.90;;;;;;4944728;29;20199;-94
2022/03/01 06:59:01;;;;;;;18.60;11.68;;;0.40;79.40;;;;;;4932452;29;20225;-93
2022/03/01 07:01:45;;;;;;;23.98;13.15;;;0.40;79.30;;;;;;4929679;29;20217;-92
2022/03/01 07:07:01;;;;;;;18.30;12.30;;;0.40;79.00;;;;;;5022001;23;20241;-93
2022/03/01 07:12:49;;;;;;;19.92;13.75;;;0.60;78.30;;;;;;4951354;29;20243;-93
2022/03/01 07:18:26;;;;;;;21.45;12.50;;;0.70;77.80;;;;;;4961683;29;20190;-94
2022/03/01 07:20:56;;;;;;;22.40;13.35;;;0.70;77.80;;;;;;4950740;29;20213;-90
2022/03/01 07:23:25;;;;;;;22.83;13.00;;;0.80;77.50;;;;;;4944836;29;20261;-90
2022/03/01 07:25:52;;;;;;;24.17;14.20;;;0.90;77.30;;;;;;4940908;28;20285;-90
2022/03/01 07:28:19;;;;;;;22.17;13.25;;;1.00;76.80;;;;;;4938586;29;20206;-89
2022/03/01 07:30:47;;;;;;;20.60;14.00;;;1.10;76.50;;;;;;4938747;29;20285;-84
2022/03/01 07:33:13;;;;;;;21.33;14.15;;;1.20;76.20;;;;;;4937122;29;20735;-86
2022/03/01 07:35:40;;;;;;;16.33;14.20;;;1.10;76.00;;;;;;4938362;29;20217;-85
2022/03/01 07:38:07;;;;;;;26.42;15.57;;;1.20;75.80;;;;;;4943533;29;20222;-84
2022/03/01 07:40:35;;;;;;;21.45;15.93;;;1.20;75.90;;;;;;4940603;29;20218;-84
2022/03/01 07:43:01;;;;;;;21.30;15.18;;;1.30;75.60;;;;;;4943607;29;20193;-84
2022/03/01 07:45:29;;;;;;;22.63;15.50;;;1.30;74.90;;;;;;4949475;29;20198;-84
2022/03/01 07:47:56;;;;;;;27.23;14.60;;;1.50;74.10;;;;;;4950817;29;20248;-85
2022/03/01 07:50:23;;;;;;;17.50;13.88;;;1.60;73.80;;;;;;4939020;29;20278;-86
2022/03/01 07:52:49;;;;;;;21.70;13.55;;;1.70;72.40;;;;;;4942755;29;20246;-86
2022/03/01 07:55:16;;;;;;;20.20;13.25;;;1.70;72.00;;;;;;4943614;29;20194;-89
2022/03/01 07:57:45;;;;;;;20.27;13.05;;;1.80;70.50;;;;;;4948770;29;20393;-90
2022/03/01 08:00:14;;;;;;;16.70;11.77;;;1.90;70.30;;;;;;4942946;29;20210;-90
2022/03/01 08:02:42;;;;;;;14.35;11.07;;;1.90;69.30;;;;;;4948658;29;20667;-90
2022/03/01 08:05:10;;;;;;;18.65;13.07;;;1.90;68.70;;;;;;4966431;28;20194;-91
2022/03/01 08:07:37;;;;;;;19.45;10.65;;;1.90;68.50;;;;;;4979373;28;20217;-92
2022/03/01 08:10:05;;;;;;;16.92;12.60;;;2.10;67.90;;;;;;4965930;29;20246;-91
2022/03/01 08:12:34;;;;;;;18.55;13.30;;;2.30;67.50;;;;;;4944802;29;20757;-91
2022/03/01 08:15:05;;;;;;;19.80;13.27;;;2.30;67.10;;;;;;4939972;29;20206;-91
2022/03/01 08:17:33;;;;;;;17.17;11.18;;;2.50;66.70;;;;;;4952638;28;20213;-92
2022/03/01 08:20:00;;;;;;;19.83;12.98;;;2.80;66.10;;;;;;4944345;28;20189;-91
2022/03/01 08:22:27;;;;;;;16.52;11.48;;;2.90;65.70;;;;;;4922858;29;20198;-91
2022/03/01 08:24:54;;;;;;;18.88;12.50;;;3.60;65.20;;;;;;4921443;29;20210;-89
2022/03/01 08:27:21;;;;;;;14.60;10.82;;;5.40;61.90;;;;;;4931944;29;20220;-90
2022/03/01 08:29:52;;;;;;;20.63;14.50;;;6.80;56.90;;;;;;4942413;29;20210;-91
2022/03/01 08:32:28;;;;;;;16.57;11.53;;;8.00;54.40;;;;;;4941573;29;20483;-91
2022/03/01 08:34:55;;;;;;;16.00;12.57;;;9.20;51.60;;;;;;4950891;29;20449;-91
2022/03/01 08:37:22;;;;;;;13.20;10.60;;;10.00;48.20;;;;;;4939095;29;20483;-91
2022/03/01 08:39:49;;;;;;;15.50;11.30;;;10.70;46.20;;;;;;4925821;29;20521;-90
2022/03/01 08:42:16;;;;;;;13.97;11.20;;;10.60;44.20;;;;;;4922233;29;20477;-91
2022/03/01 08:44:42;;;;;;;13.03;10.80;;;10.50;44.40;;;;;;4922503;29;20450;-91
2022/03/01 08:47:09;;;;;;;16.77;11.83;;;10.30;44.30;;;;;;4937804;29;21075;-91
2022/03/01 08:49:38;;;;;;;19.73;12.17;;;11.10;44.20;;;;;;4935644;29;20454;-91
2022/03/01 08:52:05;;;;;;;14.83;12.23;;;11.40;43.10;;;;;;4924632;29;20462;-91
2022/03/01 08:54:33;;;;;;;16.97;13.30;;;12.10;42.70;;;;;;4937908;29;20454;-91
2022/03/01 08:57:00;;;;;;;17.37;13.57;;;11.90;41.70;;;;;;4944393;29;20473;-91
2022/03/01 08:59:27;;;;;;;16.80;13.23;;;11.60;41.70;;;;;;4938198;29;20452;-90
2022/03/01 09:01:54;;;;;;;16.80;13.57;;;11.50;42.00;;;;;;4941956;29;20464;-91
2022/03/01 09:04:21;;;;;;;13.10;10.43;;;11.50;42.10;;;;;;4947382;29;20427;-91
2022/03/01 09:06:50;;;;;;;13.10;11.10;;;11.40;41.70;;;;;;4954600;28;20466;-92
2022/03/01 09:09:16;;;;;;;16.23;12.73;;;11.10;41.70;;;;;;4961093;29;20450;-92
2022/03/01 09:11:43;;;;;;;14.50;12.90;;;11.20;41.80;;;;;;4957022;28;20496;-91
2022/03/01 09:14:11;;;;;;;16.17;11.27;;;11.60;41.90;;;;;;4941624;29;20488;-91
2022/03/01 09:16:41;;;;;;;12.97;10.60;;;12.10;41.10;;;;;;4929877;29;20470;-91
2022/03/01 09:19:08;;;;;;;17.37;12.23;;;11.30;39.90;;;;;;4928345;29;20471;-92
2022/03/01 09:21:37;;;;;;;17.53;13.13;;;10.90;41.30;;;;;;4942343;29;20453;-92
2022/03/01 09:24:06;;;;;;;13.67;12.20;;;10.80;41.90;;;;;;4935278;29;20965;-89
2022/03/01 09:26:33;;;;;;;12.97;11.13;;;11.20;42.40;;;;;;4923684;29;20485;-89
2022/03/01 09:29:01;;;;;;;14.37;11.00;;;11.30;41.40;;;;;;4940964;29;20971;-91
2022/03/01 09:31:28;;;;;;;15.73;13.20;;;11.20;41.60;;;;;;4929800;29;20526;-90
2022/03/01 09:33:55;;;;;;;14.80;11.80;;;11.80;41.10;;;;;;4931855;29;20485;-90
2022/03/01 09:36:23;;;;;;;15.70;12.13;;;11.60;40.30;;;;;;4932802;29;20498;-91
2022/03/01 09:38:51;;;;;;;14.67;13.17;;;11.40;41.80;;;;;;4931524;29;20851;-91
2022/03/01 09:41:27;;;;;;;12.53;11.23;;;11.40;41.50;;;;;;4924785;29;21029;-91
2022/03/01 09:43:55;;;;;;;18.43;12.43;;;11.40;41.00;;;;;;4937884;29;20600;-91
2022/03/01 09:46:22;;;;;;;15.10;11.27;;;10.80;39.80;;;;;;4941724;29;20481;-91
2022/03/01 09:48:53;;;;;;;13.43;11.00;;;11.20;40.50;;;;;;4943999;29;20462;-91
2022/03/01 09:51:25;;;;;;;13.30;11.40;;;11.20;39.50;;;;;;4958971;29;20449;-92
2022/03/01 09:53:56;;;;;;;12.07;10.17;;;11.60;39.10;;;;;;4945473;29;20505;-92
2022/03/01 09:56:26;;;;;;;13.30;10.73;;;11.80;38.80;;;;;;4937044;29;20569;-92
2022/03/01 09:59:01;;;;;;;13.20;10.43;;;11.70;38.40;;;;;;4945711;29;20956;-91
2022/03/01 10:01:31;;;;;;;12.07;9.90;;;11.40;38.70;;;;;;4932581;29;20454;-92
2022/03/01 10:04:10;;;;;;;13.30;10.30;;;12.00;38.90;;;;;;4934648;29;20452;-92
2022/03/01 10:06:53;;;;;;;11.40;10.27;;;11.60;38.30;;;;;;4940550;29;20476;-90
2022/03/01 10:09:29;;;;;;;13.30;11.17;;;12.00;38.90;;;;;;4927839;29;20463;-90
2022/03/01 10:12:09;;;;;;;12.57;10.90;;;13.20;38.10;;;;;;4942735;29;20461;-92
2022/03/01 10:14:40;;;;;;;16.23;10.23;;;14.00;36.80;;;;;;4944910;29;20486;-91
2022/03/01 10:17:24;;;;;;;13.50;11.13;;;15.20;35.60;;;;;;4928361;29;20489;-91
2022/03/01 10:20:04;;;;;;;13.20;11.80;;;14.10;34.50;;;;;;4934453;29;20454;-91
2022/03/01 10:25:31;;;;;;;14.73;11.97;;;14.10;34.60;;;;;;4920063;29;20473;-92
2022/03/01 10:28:06;;;;;;;13.10;11.23;;;15.30;35.10;;;;;;4925442;29;20474;-91
2022/03/01 10:30:36;;;;;;;13.33;11.93;;;16.90;33.80;;;;;;4923677;29;20471;-91
2022/03/01 10:33:09;;;;;;;12.30;11.10;;;16.60;32.70;;;;;;4921854;29;20863;-92
2022/03/01 10:36:09;;;;;;;16.60;12.50;;;16.60;31.90;;;;;;4924596;29;20552;-92
2022/03/01 10:38:39;;;;;;;12.40;11.20;;;17.70;31.40;;;;;;4927901;29;20489;-92
2022/03/01 10:41:11;;;;;;;12.77;10.83;;;18.00;30.00;;;;;;4945992;29;20438;-92
2022/03/01 10:44:04;;;;;;;11.90;10.80;;;18.60;30.90;;;;;;4938118;29;20459;-93
2022/03/01 10:46:51;;;;;;;11.60;10.43;;;20.40;29.70;;;;;;4934417;29;20990;-91
2022/03/01 10:49:36;;;;;;;17.70;11.87;;;20.80;28.20;;;;;;4929366;29;20447;-92
2022/03/01 10:52:21;;;;;;;24.80;13.33;;;20.20;28.00;;;;;;4930175;29;20478;-92
2022/03/01 10:54:52;;;;;;;11.97;10.77;;;19.80;28.30;;;;;;4923544;29;20489;-92
2022/03/01 10:57:29;;;;;;;12.40;11.30;;;20.60;28.00;;;;;;4925415;29;20514;-92
2022/03/01 11:00:13;;;;;;;10.57;9.50;;;20.70;27.80;;;;;;4941979;29;20458;-91
2022/03/01 11:02:45;;;;;;;10.40;9.40;;;18.30;27.90;;;;;;4938983;29;20511;-93
2022/03/01 11:05:31;;;;;;;23.33;11.37;;;20.00;28.20;;;;;;4926758;29;20466;-92
2022/03/01 11:08:14;;;;;;;11.93;10.77;;;21.40;27.50;;;;;;4933154;29;20469;-91
2022/03/01 11:10:53;;;;;;;11.77;10.60;;;21.90;26.80;;;;;;4948210;29;20463;-92
2022/03/01 11:13:33;;;;;;;12.77;11.47;;;20.70;25.90;;;;;;4950493;29;20484;-92
2022/03/01 11:16:34;;;;;;;12.40;11.23;;;20.40;27.70;;;;;;4946060;29;20449;-92
2022/03/01 11:19:29;;;;;;;11.37;10.27;;;21.00;27.50;;;;;;4918517;29;20512;-92
2022/03/01 11:22:05;;;;;;;11.00;9.73;;;21.90;26.60;;;;;;4941881;29;20435;-92
2022/03/01 11:24:43;;;;;;;11.67;10.47;;;21.90;25.60;;;;;;4941425;29;20504;-92
2022/03/01 11:27:29;;;;;;;11.03;10.03;;;19.70;26.90;;;;;;4940183;29;20565;-91
2022/03/01 11:30:16;;;;;;;11.67;10.57;;;20.20;27.10;;;;;;4940666;29;20456;-91
2022/03/01 11:33:05;;;;;;;10.50;9.50;;;19.90;26.70;;;;;;4882297;29;20462;-91
2022/03/01 11:35:46;;;;;;;11.93;9.43;;;19.70;27.20;;;;;;4959513;28;20457;-93
2022/03/01 11:38:37;;;;;;;11.23;10.13;;;20.70;26.70;;;;;;4941524;29;20446;-92
2022/03/01 11:51:27;;;;;;;11.60;10.43;;;21.50;25.30;;;;;;4916373;29;20950;-92
2022/03/01 11:54:12;;;;;;;11.10;10.10;;;23.20;25.50;;;;;;4920974;29;20487;-92
2022/03/01 11:57:08;;;;;;;11.37;10.33;;;23.90;24.30;;;;;;4911761;29;20476;-92
2022/03/01 12:03:02;;;;;;;11.90;10.80;;;20.40;25.50;;;;;;4929431;29;20845;-92
2022/03/01 12:11:39;;;;;;;11.90;10.70;;;20.20;25.40;;;;;;4911563;29;20450;-92
2022/03/01 12:14:13;;;;;;;11.13;10.03;;;21.00;25.90;;;;;;4919198;29;21059;-91
2022/03/01 12:16:54;;;;;;;12.17;11.07;;;21.90;25.50;;;;;;4909358;29;20531;-92
2022/03/01 12:19:40;;;;;;;12.13;10.90;;;22.70;25.00;;;;;;4923930;29;20469;-92
2022/03/01 12:22:18;;;;;;;10.87;9.87;;;24.00;24.50;;;;;;4929256;29;20544;-91
2022/03/01 12:24:48;;;;;;;11.17;9.97;;;24.80;23.60;;;;;;4920318;29;20454;-83
2022/03/01 12:27:14;;;;;;;12.17;10.87;;;24.60;23.80;;;;;;4920857;29;20476;-83
2022/03/01 12:29:46;;;;;;;11.90;10.80;;;24.80;23.60;;;;;;4923152;29;20459;-86
2022/03/01 12:32:13;;;;;;;10.43;9.40;;;25.00;23.10;;;;;;4920521;29;20451;-83
2022/03/01 12:34:42;;;;;;;12.23;9.33;;;25.00;23.00;;;;;;4935213;29;20490;-82
2022/03/01 12:37:14;;;;;;;10.40;9.50;;;24.80;22.40;;;;;;4934340;29;20479;-83
2022/03/01 12:39:41;;;;;;;10.73;9.83;;;24.30;22.60;;;;;;4919112;29;20466;-86
2022/03/01 12:42:09;;;;;;;10.00;9.00;;;24.60;22.50;;;;;;4917729;29;20451;-86
2022/03/01 12:44:36;;;;;;;10.80;9.90;;;25.50;21.80;;;;;;4919203;29;20962;-87
2022/03/01 12:47:06;;;;;;;9.00;8.20;;;26.20;21.40;;;;;;4931322;29;20463;-87
2022/03/01 12:49:36;;;;;;;10.50;9.50;;;25.60;21.10;;;;;;4940629;29;20460;-86
2022/03/01 12:52:03;;;;;;;11.00;9.80;;;23.90;21.90;;;;;;4921049;29;20460;-87
2022/03/01 12:54:32;;;;;;;11.00;10.10;;;23.40;22.10;;;;;;4925846;29;20493;-86
2022/03/01 12:57:00;;;;;;;10.53;9.47;;;22.70;22.40;;;;;;4921516;29;20473;-88
2022/03/01 12:59:29;;;;;;;9.60;8.57;;;22.30;23.00;;;;;;4919703;29;20917;-88
2022/03/01 13:01:59;;;;;;;10.47;9.40;;;21.50;23.30;;;;;;4901815;29;20457;-88
2022/03/01 13:04:26;;;;;;;9.80;8.93;;;20.60;23.50;;;;;;4907617;29;20463;-88
2022/03/01 13:06:53;;;;;;;10.50;9.27;;;20.60;23.70;;;;;;4919826;29;20486;-88
2022/03/01 13:09:20;;;;;;;9.77;8.20;;;19.40;23.60;;;;;;4920995;29;20463;-88
2022/03/01 13:11:49;;;;;;;10.10;9.03;;;18.60;24.20;;;;;;4919347;29;20827;-87
2022/03/01 13:14:18;;;;;;;9.77;8.87;;;17.60;25.00;;;;;;4917960;29;20513;-86
2022/03/01 13:16:47;;;;;;;9.60;8.60;;;17.30;24.90;;;;;;4918550;29;20481;-88
2022/03/01 13:19:16;;;;;;;9.63;8.63;;;16.70;25.40;;;;;;4917964;29;20454;-88
2022/03/01 13:21:45;;;;;;;9.27;8.30;;;17.30;25.80;;;;;;4924416;29;20461;-88
2022/03/01 13:24:14;;;;;;;9.27;8.40;;;17.30;25.40;;;;;;4938260;29;20454;-87
2022/03/01 13:26:40;;;;;;;12.03;9.90;;;17.00;26.00;;;;;;4926946;29;20466;-87
2022/03/01 13:29:11;;;;;;;11.30;8.40;;;17.10;25.80;;;;;;4934939;29;20461;-87
2022/03/01 13:31:38;;;;;;;9.80;8.80;;;17.00;26.20;;;;;;4906092;29;20447;-87
2022/03/01 13:34:05;;;;;;;10.20;9.03;;;16.90;26.30;;;;;;4904534;29;20490;-88
2022/03/01 13:36:34;;;;;;;11.03;9.10;;;16.20;26.30;;;;;;4914637;29;20471;-87
2022/03/01 13:39:03;;;;;;;10.27;9.17;;;15.90;27.30;;;;;;4916362;29;20522;-87
2022/03/01 13:41:31;;;;;;;12.87;9.80;;;16.50;27.40;;;;;;4924385;29;20536;-87
2022/03/01 13:44:17;;;;;;;9.90;8.90;;;16.40;26.80;;;;;;4921636;29;20452;-87
2022/03/01 13:46:57;;;;;;;9.37;8.57;;;16.50;27.00;;;;;;4917268;29;21006;-87
2022/03/01 13:49:29;;;;;;;9.20;8.27;;;16.60;27.00;;;;;;4912717;29;20458;-87
2022/03/01 13:52:12;;;;;;;9.80;8.83;;;16.50;26.60;;;;;;4922318;29;20468;-87
2022/03/01 13:54:42;;;;;;;8.53;7.63;;;15.40;26.80;;;;;;4925730;29;20488;-87
2022/03/01 13:57:10;;;;;;;8.97;8.10;;;14.90;27.50;;;;;;4922055;29;20483;-89
2022/03/01 13:59:38;;;;;;;9.50;8.47;;;14.70;27.70;;;;;;4923032;29;20460;-87
2022/03/01 14:02:05;;;;;;;9.60;8.00;;;14.10;27.50;;;;;;4922674;29;20451;-88
2022/03/01 14:04:33;;;;;;;9.53;8.63;;;13.80;28.30;;;;;;4920509;29;20476;-87
2022/03/01 14:07:00;;;;;;;10.80;9.70;;;13.80;28.80;;;;;;4922098;29;20929;-87
2022/03/01 14:47:20;;;;;;;;;;;;;;;;;;;;;
2022/03/01 15:23:56;;;;;;;9.90;8.90;;;13.80;30.00;;;;;;4749669;27;20467;-93
2022/03/01 15:30:14;;;;;;;11.03;8.53;;;13.90;30.00;;;;;;4923422;29;20458;-90
2022/03/01 15:33:05;;;;;;;;;;;;;;;;;;;;;
2022/03/01 15:35:55;;;;;;;10.00;8.97;;;13.90;30.20;;;;;;4927487;29;20493;-93
2022/03/01 15:50:07;;;;;;;11.00;9.50;;;13.60;31.50;;;;;;5111188;23;20506;-91
2022/03/01 15:52:50;;;;;;;11.30;9.93;;;13.40;31.40;;;;;;4904783;29;20519;-92
2022/03/01 15:58:21;;;;;;;10.67;9.57;;;12.90;31.90;;;;;;4920444;29;20457;-90
2022/03/01 16:00:48;;;;;;;10.30;9.33;;;12.70;32.10;;;;;;4929034;29;20472;-86
2022/03/01 16:03:17;;;;;;;14.13;9.10;;;12.50;32.30;;;;;;4909006;29;20485;-88
2022/03/01 16:05:43;;;;;;;10.07;9.07;;;12.30;32.70;;;;;;4952985;23;20493;-86
2022/03/01 16:08:10;;;;;;;10.73;9.20;;;12.20;33.10;;;;;;4940941;28;20453;-85
2022/03/01 16:10:38;;;;;;;11.10;9.63;;;12.20;33.50;;;;;;4937378;29;20468;-87
2022/03/01 16:13:05;;;;;;;10.47;9.17;;;12.40;33.10;;;;;;4919814;29;20454;-86
2022/03/01 16:15:32;;;;;;;10.40;9.40;;;12.20;32.90;;;;;;4926877;29;20496;-87
2022/03/01 16:18:21;;;;;;;13.50;10.10;;;11.90;33.20;;;;;;4942363;29;20541;-86
2022/03/01 16:20:51;;;;;;;13.93;10.00;;;11.60;33.60;;;;;;4943196;29;20466;-87
2022/03/01 16:23:22;;;;;;;10.20;8.70;;;11.30;34.40;;;;;;4938231;29;20446;-88
2022/03/01 16:25:54;;;;;;;12.63;9.10;;;11.10;34.80;;;;;;4951212;29;20553;-87
2022/03/01 16:28:20;;;;;;;14.67;10.40;;;10.80;35.30;;;;;;4951941;29;20441;-88
2022/03/01 16:30:47;;;;;;;10.73;9.20;;;10.60;35.80;;;;;;4953782;29;20455;-87
2022/03/01 16:33:14;;;;;;;12.33;9.70;;;10.40;36.30;;;;;;4949971;29;20450;-88
2022/03/01 16:35:40;;;;;;;11.20;9.97;;;10.30;36.70;;;;;;4946611;29;20584;-89
2022/03/01 16:38:07;;;;;;;13.07;10.17;;;10.20;37.10;;;;;;4943573;29;20513;-90
2022/03/01 16:40:34;;;;;;;10.40;9.33;;;10.00;37.10;;;;;;4958636;29;20438;-89
2022/03/01 16:43:03;;;;;;;13.93;10.80;;;9.90;38.10;;;;;;4949769;29;20457;-92
2022/03/01 16:45:29;;;;;;;11.37;9.73;;;9.80;38.30;;;;;;4941078;29;20473;-91
2022/03/01 16:48:09;;;;;;;12.17;10.90;;;9.70;38.90;;;;;;4959338;29;20453;-90
2022/03/01 16:50:39;;;;;;;12.47;9.73;;;9.60;39.30;;;;;;4959608;29;20434;-89
2022/03/01 16:53:07;;;;;;;10.87;9.63;;;9.50;39.10;;;;;;4959065;28;20505;-87
2022/03/01 16:55:34;;;;;;;12.23;9.87;;;9.30;39.10;;;;;;4958461;28;20488;-89
2022/03/01 16:58:03;;;;;;;12.73;10.20;;;9.20;39.40;;;;;;4956024;28;20446;-89
2022/03/01 17:00:32;;;;;;;11.90;10.47;;;9.10;39.50;;;;;;4950914;29;20461;-89
2022/03/01 17:03:02;;;;;;;12.70;9.47;;;9.10;39.90;;;;;;4953380;29;20461;-86
2022/03/01 17:05:29;;;;;;;14.60;9.83;;;9.00;40.40;;;;;;4961484;28;20549;-88
2022/03/01 17:07:56;;;;;;;11.30;9.60;;;9.00;40.40;;;;;;4959338;29;20521;-88
2022/03/01 17:10:23;;;;;;;11.40;9.90;;;8.90;40.40;;;;;;4959888;29;20449;-88
2022/03/01 17:12:50;;;;;;;14.87;9.53;;;8.80;40.50;;;;;;4950863;29;20454;-90
2022/03/01 17:15:19;;;;;;;11.20;9.57;;;8.80;40.80;;;;;;4943970;29;20489;-87
2022/03/01 17:17:46;;;;;;;11.37;9.77;;;8.80;40.90;;;;;;4950865;28;20457;-87
2022/03/01 17:20:14;;;;;;;12.70;9.67;;;8.70;40.80;;;;;;4940884;29;20449;-87
2022/03/01 17:22:41;;;;;;;17.57;12.10;;;8.60;41.30;;;;;;4948685;29;20485;-87
2022/03/01 17:25:10;;;;;;;13.83;11.60;;;8.60;41.60;;;;;;4940799;29;20528;-88
2022/03/01 17:27:38;;;;;;;11.63;10.33;;;8.50;41.70;;;;;;4941923;29;20466;-88
2022/03/01 17:30:08;;;;;;;16.33;10.53;;;8.40;42.20;;;;;;4940424;29;21582;-88
2022/03/01 17:32:36;;;;;;;12.70;10.40;;;8.30;42.40;;;;;;4941236;29;20829;-89
2022/03/01 17:35:03;;;;;;;13.77;10.60;;;8.30;42.70;;;;;;4940504;29;20481;-88
2022/03/01 17:37:30;;;;;;;14.97;12.43;;;8.30;43.20;;;;;;4940476;29;20450;-88
2022/03/01 17:39:57;;;;;;;13.80;11.30;;;8.20;43.60;;;;;;4939294;29;20453;-88
2022/03/01 17:42:24;;;;;;;16.10;10.97;;;8.20;43.80;;;;;;4938973;29;20847;-89
2022/03/01 17:44:51;;;;;;;16.43;13.23;;;8.20;43.80;;;;;;4939146;29;20480;-85
2022/03/01 17:47:19;;;;;;;16.10;12.00;;;8.10;44.40;;;;;;4939048;29;20450;-86
2022/03/01 17:49:47;;;;;;;18.17;13.03;;;7.90;44.80;;;;;;4941917;29;20450;-87
2022/03/01 17:52:16;;;;;;;16.77;12.37;;;7.60;45.10;;;;;;4940326;29;20481;-88
2022/03/01 17:54:45;;;;;;;16.00;11.93;;;7.40;45.20;;;;;;4939177;29;20523;-85
2022/03/01 17:57:12;;;;;;;19.60;13.23;;;7.20;45.50;;;;;;4938687;29;20478;-85
2022/03/01 17:59:39;;;;;;;14.80;11.17;;;7.10;45.90;;;;;;4948327;29;20454;-85
2022/03/01 18:02:06;;;;;;;17.47;12.23;;;7.00;45.80;;;;;;4953031;29;20453;-85
2022/03/01 18:04:33;;;;;;;15.20;10.30;;;7.00;46.70;;;;;;4950329;29;20488;-85
2022/03/01 18:07:01;;;;;;;18.57;11.60;;;6.90;47.00;;;;;;4948465;29;20911;-86
2022/03/01 18:09:28;;;;;;;18.50;11.03;;;6.90;46.30;;;;;;4947652;28;20456;-86
2022/03/01 18:11:55;;;;;;;14.43;10.80;;;6.90;46.40;;;;;;4950790;29;20461;-85
2022/03/01 18:14:22;;;;;;;14.70;10.60;;;7.00;46.00;;;;;;4949395;29;21000;-85
2022/03/01 18:16:49;;;;;;;13.90;10.57;;;7.10;45.60;;;;;;4950882;29;20448;-85
2022/03/01 18:19:19;;;;;;;11.77;9.83;;;7.00;45.40;;;;;;4948159;29;20449;-86
2022/03/01 18:21:48;;;;;;;12.90;9.20;;;7.00;45.30;;;;;;4948442;29;20717;-85
2022/03/01 18:24:16;;;;;;;11.93;9.93;;;6.90;45.50;;;;;;4947417;29;20468;-86
2022/03/01 18:26:43;;;;;;;12.33;9.67;;;6.80;45.90;;;;;;4952426;29;20936;-85
2022/03/01 18:29:11;;;;;;;13.23;10.90;;;6.70;46.10;;;;;;4948756;29;20444;-85
2022/03/01 18:31:38;;;;;;;18.20;12.53;;;6.70;46.10;;;;;;4961143;29;20506;-85
2022/03/01 18:34:06;;;;;;;19.97;12.00;;;6.70;46.60;;;;;;4968719;29;20438;-85
2022/03/01 18:36:33;;;;;;;14.10;11.53;;;6.70;46.90;;;;;;4968441;28;20494;-85
2022/03/01 18:39:00;;;;;;;14.17;10.77;;;6.70;46.90;;;;;;4967531;28;20438;-85
2022/03/01 18:41:28;;;;;;;18.80;13.63;;;6.70;47.20;;;;;;4955174;29;21043;-85
2022/03/01 18:43:55;;;;;;;13.80;12.17;;;6.70;48.10;;;;;;4933915;29;20445;-85